sensor_id;sensor_type;location;lat;lon;timestamp;pressure;altitude;pressure_sealevel;temperature;humidity
20105;BME280;10212;42.714;23.310;2023-04-27T00:03:15;94881.09;;;6.30;62.13
20105;BME280;10212;42.714;23.310;2023-04-27T00:13:15;94884.88;;;6.12;62.61
20105;BME280;10212;42.714;23.310;2023-04-27T00:23:16;94898.13;;;5.94;63.54
20105;BME280;10212;42.714;23.310;2023-04-27T00:33:16;94890.34;;;5.78;64.20
20105;BME280;10212;42.714;23.310;2023-04-27T00:43:17;94892.03;;;5.56;64.79
20105;BME280;10212;42.714;23.310;2023-04-27T00:53:18;94894.06;;;5.46;64.74
20105;BME280;10212;42.714;23.310;2023-04-27T01:03:18;94895.16;;;5.28;65.40
20105;BME280;10212;42.714;23.310;2023-04-27T01:13:19;94903.47;;;5.23;65.84
20105;BME280;10212;42.714;23.310;2023-04-27T01:23:19;94912.41;;;5.12;65.95
20105;BME280;10212;42.714;23.310;2023-04-27T01:33:19;94917.94;;;5.09;66.00
20105;BME280;10212;42.714;23.310;2023-04-27T01:43:20;94929.34;;;5.15;66.49
20105;BME280;10212;42.714;23.310;2023-04-27T01:53:20;94928.38;;;5.16;65.90
20105;BME280;10212;42.714;23.310;2023-04-27T02:03:21;94927.84;;;4.97;66.25
20105;BME280;10212;42.714;23.310;2023-04-27T02:13:21;94930.44;;;4.97;65.70
20105;BME280;10212;42.714;23.310;2023-04-27T02:23:22;94933.06;;;4.89;66.00
20105;BME280;10212;42.714;23.310;2023-04-27T02:33:22;94940.59;;;4.75;66.13
20105;BME280;10212;42.714;23.310;2023-04-27T02:43:22;94940.25;;;4.78;66.01
20105;BME280;10212;42.714;23.310;2023-04-27T02:53:23;94949.59;;;4.79;65.58
20105;BME280;10212;42.714;23.310;2023-04-27T03:03:23;94955.19;;;4.60;66.32
20105;BME280;10212;42.714;23.310;2023-04-27T03:13:24;94958.13;;;4.48;67.03
20105;BME280;10212;42.714;23.310;2023-04-27T03:23:24;94960.63;;;4.33;67.59
20105;BME280;10212;42.714;23.310;2023-04-27T03:33:24;94976.44;;;4.30;67.60
20105;BME280;10212;42.714;23.310;2023-04-27T03:43:28;94987.44;;;4.24;68.05
20105;BME280;10212;42.714;23.310;2023-04-27T03:53:28;94991.00;;;4.22;67.96
20105;BME280;10212;42.714;23.310;2023-04-27T04:03:28;95001.78;;;4.18;68.06
20105;BME280;10212;42.714;23.310;2023-04-27T04:13:29;95013.91;;;4.17;67.92
20105;BME280;10212;42.714;23.310;2023-04-27T04:23:29;95030.88;;;4.03;68.14
20105;BME280;10212;42.714;23.310;2023-04-27T04:33:30;95029.56;;;4.07;68.38
20105;BME280;10212;42.714;23.310;2023-04-27T04:43:30;95039.56;;;4.19;67.63
20105;BME280;10212;42.714;23.310;2023-04-27T04:53:30;95052.78;;;4.24;67.60
20105;BME280;10212;42.714;23.310;2023-04-27T05:03:31;95065.31;;;4.36;67.66
20105;BME280;10212;42.714;23.310;2023-04-27T05:13:32;95071.91;;;4.63;67.45
20105;BME280;10212;42.714;23.310;2023-04-27T05:23:32;95070.63;;;4.99;65.49
20105;BME280;10212;42.714;23.310;2023-04-27T05:33:32;95080.09;;;5.47;64.13
20105;BME280;10212;42.714;23.310;2023-04-27T05:43:33;95078.38;;;5.63;63.03
20105;BME280;10212;42.714;23.310;2023-04-27T05:53:34;95094.81;;;5.70;62.65
20105;BME280;10212;42.714;23.310;2023-04-27T06:03:34;95093.56;;;6.13;61.69
20105;BME280;10212;42.714;23.310;2023-04-27T06:13:35;95089.09;;;6.07;61.48
20105;BME280;10212;42.714;23.310;2023-04-27T06:23:36;95093.91;;;6.48;59.57
20105;BME280;10212;42.714;23.310;2023-04-27T06:33:36;95084.72;;;6.61;59.68
20105;BME280;10212;42.714;23.310;2023-04-27T06:43:37;95083.56;;;7.09;57.09
20105;BME280;10212;42.714;23.310;2023-04-27T06:53:38;95073.06;;;7.17;56.35
20105;BME280;10212;42.714;23.310;2023-04-27T07:03:38;95073.72;;;7.41;55.17
20105;BME280;10212;42.714;23.310;2023-04-27T07:13:39;95068.31;;;7.58;55.67
20105;BME280;10212;42.714;23.310;2023-04-27T07:23:39;95067.69;;;7.34;54.58
20105;BME280;10212;42.714;23.310;2023-04-27T07:33:42;95073.47;;;7.36;54.12
20105;BME280;10212;42.714;23.310;2023-04-27T07:43:43;95065.38;;;7.83;53.92
20105;BME280;10212;42.714;23.310;2023-04-27T07:53:43;95065.81;;;8.44;51.65
20105;BME280;10212;42.714;23.310;2023-04-27T08:03:45;95072.44;;;8.47;49.75
20105;BME280;10212;42.714;23.310;2023-04-27T08:13:45;95069.56;;;9.48;47.51
20105;BME280;10212;42.714;23.310;2023-04-27T08:23:46;95070.28;;;9.28;48.70
20105;BME280;10212;42.714;23.310;2023-04-27T08:33:46;95053.03;;;9.20;48.95
20105;BME280;10212;42.714;23.310;2023-04-27T08:43:47;95064.41;;;9.82;49.27
20105;BME280;10212;42.714;23.310;2023-04-27T08:53:54;95058.59;;;10.13;46.48
20105;BME280;10212;42.714;23.310;2023-04-27T09:03:57;95061.22;;;9.93;46.93
20105;BME280;10212;42.714;23.310;2023-04-27T09:14:00;95055.59;;;10.30;45.16
20105;BME280;10212;42.714;23.310;2023-04-27T09:24:11;95052.97;;;10.44;45.47
20105;BME280;10212;42.714;23.310;2023-04-27T09:34:12;95044.13;;;10.79;43.98
20105;BME280;10212;42.714;23.310;2023-04-27T09:44:13;95025.75;;;11.06;43.04
20105;BME280;10212;42.714;23.310;2023-04-27T09:54:14;95011.78;;;11.32;43.10
20105;BME280;10212;42.714;23.310;2023-04-27T10:25:11;95015.84;;;11.61;40.62
20105;BME280;10212;42.714;23.310;2023-04-27T10:35:12;95006.81;;;11.89;38.92
20105;BME280;10212;42.714;23.310;2023-04-27T10:45:25;95009.69;;;12.32;38.65
20105;BME280;10212;42.714;23.310;2023-04-27T10:55:35;95005.03;;;12.15;38.60
20105;BME280;10212;42.714;23.310;2023-04-27T11:05:36;95000.31;;;11.98;38.45
20105;BME280;10212;42.714;23.310;2023-04-27T11:15:56;95015.13;;;11.46;40.29
20105;BME280;10212;42.714;23.310;2023-04-27T11:26:35;95010.56;;;11.67;39.24
20105;BME280;10212;42.714;23.310;2023-04-27T11:46:55;95020.38;;;12.04;38.44
20105;BME280;10212;42.714;23.310;2023-04-27T12:07:35;95018.56;;;12.30;38.37
20105;BME280;10212;42.714;23.310;2023-04-27T12:17:59;95028.31;;;12.42;37.65
20105;BME280;10212;42.714;23.310;2023-04-27T12:28:12;95020.81;;;12.46;38.05
20105;BME280;10212;42.714;23.310;2023-04-27T12:38:21;95027.53;;;12.16;37.92
20105;BME280;10212;42.714;23.310;2023-04-27T12:48:27;95024.25;;;12.21;38.35
20105;BME280;10212;42.714;23.310;2023-04-27T12:58:36;95032.63;;;12.29;37.88
20105;BME280;10212;42.714;23.310;2023-04-27T13:08:50;95020.38;;;12.49;37.13
20105;BME280;10212;42.714;23.310;2023-04-27T13:19:01;95024.25;;;12.46;36.91
20105;BME280;10212;42.714;23.310;2023-04-27T13:29:13;95022.16;;;12.55;36.79
20105;BME280;10212;42.714;23.310;2023-04-27T13:39:24;95022.41;;;12.02;37.88
20105;BME280;10212;42.714;23.310;2023-04-27T13:49:45;95027.31;;;12.43;37.04
20105;BME280;10212;42.714;23.310;2023-04-27T13:59:59;95031.53;;;12.18;37.41
20105;BME280;10212;42.714;23.310;2023-04-27T14:10:04;95044.06;;;12.03;38.16
20105;BME280;10212;42.714;23.310;2023-04-27T14:20:17;95037.84;;;12.11;38.07
20105;BME280;10212;42.714;23.310;2023-04-27T14:40:42;95079.84;;;11.38;38.33
20105;BME280;10212;42.714;23.310;2023-04-27T14:50:58;95080.81;;;11.82;37.51
20105;BME280;10212;42.714;23.310;2023-04-27T15:01:25;95092.38;;;11.61;37.60
20105;BME280;10212;42.714;23.310;2023-04-27T15:11:32;95114.19;;;11.80;37.37
20105;BME280;10212;42.714;23.310;2023-04-27T15:21:46;95102.56;;;11.37;38.69
20105;BME280;10212;42.714;23.310;2023-04-27T15:32:05;95111.50;;;11.55;37.82
20105;BME280;10212;42.714;23.310;2023-04-27T15:42:17;95111.66;;;11.07;39.04
20105;BME280;10212;42.714;23.310;2023-04-27T15:52:29;95124.97;;;10.72;41.01
20105;BME280;10212;42.714;23.310;2023-04-27T16:02:42;95130.19;;;10.65;40.19
20105;BME280;10212;42.714;23.310;2023-04-27T16:13:14;95139.41;;;10.41;40.89
20105;BME280;10212;42.714;23.310;2023-04-27T16:23:27;95138.19;;;10.16;42.31
20105;BME280;10212;42.714;23.310;2023-04-27T16:33:39;95162.59;;;9.95;43.51
20105;BME280;10212;42.714;23.310;2023-04-27T16:44:11;95173.75;;;9.68;44.65
20105;BME280;10212;42.714;23.310;2023-04-27T16:54:15;95190.28;;;9.53;45.16
20105;BME280;10212;42.714;23.310;2023-04-27T17:14:56;95201.94;;;9.15;46.71
20105;BME280;10212;42.714;23.310;2023-04-27T17:35:21;95229.13;;;8.84;49.39
20105;BME280;10212;42.714;23.310;2023-04-27T17:45:43;95238.28;;;8.80;50.19
20105;BME280;10212;42.714;23.310;2023-04-27T17:56:11;95259.94;;;8.65;51.14
20105;BME280;10212;42.714;23.310;2023-04-27T18:06:18;95280.97;;;8.49;51.83
20105;BME280;10212;42.714;23.310;2023-04-27T18:16:23;95297.03;;;8.37;52.19
20105;BME280;10212;42.714;23.310;2023-04-27T18:26:23;95316.94;;;8.30;52.88
20105;BME280;10212;42.714;23.310;2023-04-27T18:36:25;95321.63;;;8.19;53.40
20105;BME280;10212;42.714;23.310;2023-04-27T18:46:26;95337.88;;;8.06;54.50
20105;BME280;10212;42.714;23.310;2023-04-27T18:56:27;95346.00;;;8.03;54.33
20105;BME280;10212;42.714;23.310;2023-04-27T19:06:27;95360.41;;;7.91;54.49
20105;BME280;10212;42.714;23.310;2023-04-27T19:16:27;95359.72;;;7.97;55.03
20105;BME280;10212;42.714;23.310;2023-04-27T19:26:28;95368.47;;;7.81;55.09
20105;BME280;10212;42.714;23.310;2023-04-27T19:36:28;95381.34;;;7.59;55.72
20105;BME280;10212;42.714;23.310;2023-04-27T19:46:29;95382.53;;;7.33;56.76
20105;BME280;10212;42.714;23.310;2023-04-27T19:56:29;95390.13;;;7.19;57.91
20105;BME280;10212;42.714;23.310;2023-04-27T20:06:30;95395.22;;;7.28;57.93
20105;BME280;10212;42.714;23.310;2023-04-27T20:16:32;95395.06;;;7.29;57.71
20105;BME280;10212;42.714;23.310;2023-04-27T20:26:32;95391.78;;;7.12;58.35
20105;BME280;10212;42.714;23.310;2023-04-27T20:36:36;95398.34;;;6.99;58.67
20105;BME280;10212;42.714;23.310;2023-04-27T20:46:36;95403.31;;;6.86;58.20
20105;BME280;10212;42.714;23.310;2023-04-27T20:56:37;95415.81;;;6.74;57.92
20105;BME280;10212;42.714;23.310;2023-04-27T21:06:37;95414.09;;;6.66;57.81
20105;BME280;10212;42.714;23.310;2023-04-27T21:16:38;95415.81;;;6.42;58.52
20105;BME280;10212;42.714;23.310;2023-04-27T21:26:39;95411.00;;;6.31;59.30
20105;BME280;10212;42.714;23.310;2023-04-27T21:36:41;95415.25;;;6.23;59.27
20105;BME280;10212;42.714;23.310;2023-04-27T21:46:41;95414.63;;;6.13;59.81
20105;BME280;10212;42.714;23.310;2023-04-27T21:56:42;95413.34;;;6.09;60.47
20105;BME280;10212;42.714;23.310;2023-04-27T22:06:42;95419.97;;;6.03;58.86
20105;BME280;10212;42.714;23.310;2023-04-27T22:16:43;95423.72;;;5.92;58.64
20105;BME280;10212;42.714;23.310;2023-04-27T22:26:44;95414.69;;;5.79;58.66
20105;BME280;10212;42.714;23.310;2023-04-27T22:36:47;95426.00;;;5.70;58.73
20105;BME280;10212;42.714;23.310;2023-04-27T22:46:48;95422.47;;;5.71;58.74
20105;BME280;10212;42.714;23.310;2023-04-27T22:56:48;95418.56;;;5.75;58.16
20105;BME280;10212;42.714;23.310;2023-04-27T23:06:48;95406.94;;;5.54;58.59
20105;BME280;10212;42.714;23.310;2023-04-27T23:16:52;95405.16;;;5.47;58.72
20105;BME280;10212;42.714;23.310;2023-04-27T23:26:55;95405.34;;;5.28;59.41
20105;BME280;10212;42.714;23.310;2023-04-27T23:36:56;95416.16;;;5.24;59.85
20105;BME280;10212;42.714;23.310;2023-04-27T23:46:57;95412.94;;;5.22;59.78
20105;BME280;10212;42.714;23.310;2023-04-27T23:56:57;95411.97;;;5.14;59.73
